sensor_id;sensor_type;location;lat;lon;timestamp;P1;durP1;ratioP1;P2;durP2;ratioP2
13345;SDS011;6742;48.036;15.780;2022-12-07T00:01:43;320.67;;;304.50;;
13345;SDS011;6742;48.036;15.780;2022-12-07T00:04:12;276.27;;;263.27;;
13345;SDS011;6742;48.036;15.780;2022-12-07T00:06:40;228.70;;;218.53;;
13345;SDS011;6742;48.036;15.780;2022-12-07T00:09:09;192.73;;;184.17;;
13345;SDS011;6742;48.036;15.780;2022-12-07T00:11:38;204.43;;;195.00;;
13345;SDS011;6742;48.036;15.780;2022-12-07T00:14:06;233.57;;;222.93;;
13345;SDS011;6742;48.036;15.780;2022-12-07T00:16:35;256.77;;;244.40;;
13345;SDS011;6742;48.036;15.780;2022-12-07T00:19:04;237.57;;;226.57;;
13345;SDS011;6742;48.036;15.780;2022-12-07T00:21:31;243.70;;;232.40;;
13345;SDS011;6742;48.036;15.780;2022-12-07T00:23:59;277.20;;;264.03;;
13345;SDS011;6742;48.036;15.780;2022-12-07T00:26:32;313.70;;;297.87;;
13345;SDS011;6742;48.036;15.780;2022-12-07T00:29:01;335.83;;;318.50;;
13345;SDS011;6742;48.036;15.780;2022-12-07T00:31:31;309.63;;;294.60;;
13345;SDS011;6742;48.036;15.780;2022-12-07T00:34:00;288.17;;;274.00;;
13345;SDS011;6742;48.036;15.780;2022-12-07T00:36:28;252.63;;;240.57;;
13345;SDS011;6742;48.036;15.780;2022-12-07T00:38:59;295.33;;;281.03;;
13345;SDS011;6742;48.036;15.780;2022-12-07T00:41:27;253.13;;;241.00;;
13345;SDS011;6742;48.036;15.780;2022-12-07T00:43:57;284.83;;;270.97;;
13345;SDS011;6742;48.036;15.780;2022-12-07T00:46:24;286.77;;;272.67;;
13345;SDS011;6742;48.036;15.780;2022-12-07T00:48:51;303.87;;;287.90;;
13345;SDS011;6742;48.036;15.780;2022-12-07T00:51:20;305.70;;;289.33;;
13345;SDS011;6742;48.036;15.780;2022-12-07T00:53:49;291.50;;;276.73;;
13345;SDS011;6742;48.036;15.780;2022-12-07T00:56:18;341.07;;;322.60;;
13345;SDS011;6742;48.036;15.780;2022-12-07T00:58:49;375.23;;;354.57;;
13345;SDS011;6742;48.036;15.780;2022-12-07T01:01:17;356.83;;;337.13;;
13345;SDS011;6742;48.036;15.780;2022-12-07T01:03:47;304.77;;;288.77;;
13345;SDS011;6742;48.036;15.780;2022-12-07T01:06:14;351.67;;;332.37;;
13345;SDS011;6742;48.036;15.780;2022-12-07T01:08:42;347.23;;;327.77;;
13345;SDS011;6742;48.036;15.780;2022-12-07T01:11:12;320.53;;;303.13;;
13345;SDS011;6742;48.036;15.780;2022-12-07T01:13:41;320.33;;;303.57;;
13345;SDS011;6742;48.036;15.780;2022-12-07T01:16:09;285.77;;;271.53;;
13345;SDS011;6742;48.036;15.780;2022-12-07T01:18:38;293.13;;;278.63;;
13345;SDS011;6742;48.036;15.780;2022-12-07T01:21:05;328.40;;;310.13;;
13345;SDS011;6742;48.036;15.780;2022-12-07T01:23:34;430.03;;;404.70;;
13345;SDS011;6742;48.036;15.780;2022-12-07T01:26:02;347.67;;;328.60;;
13345;SDS011;6742;48.036;15.780;2022-12-07T01:28:32;351.53;;;331.97;;
13345;SDS011;6742;48.036;15.780;2022-12-07T01:31:00;445.57;;;418.63;;
13345;SDS011;6742;48.036;15.780;2022-12-07T01:33:30;365.43;;;343.67;;
13345;SDS011;6742;48.036;15.780;2022-12-07T01:36:01;379.33;;;357.13;;
13345;SDS011;6742;48.036;15.780;2022-12-07T01:38:29;382.53;;;360.50;;
13345;SDS011;6742;48.036;15.780;2022-12-07T01:40:57;398.57;;;374.67;;
13345;SDS011;6742;48.036;15.780;2022-12-07T01:43:25;349.27;;;329.80;;
13345;SDS011;6742;48.036;15.780;2022-12-07T01:46:01;387.27;;;364.07;;
13345;SDS011;6742;48.036;15.780;2022-12-07T01:48:30;392.33;;;369.70;;
13345;SDS011;6742;48.036;15.780;2022-12-07T01:51:01;358.87;;;338.70;;
13345;SDS011;6742;48.036;15.780;2022-12-07T01:53:31;445.50;;;418.30;;
13345;SDS011;6742;48.036;15.780;2022-12-07T01:56:01;373.07;;;351.57;;
13345;SDS011;6742;48.036;15.780;2022-12-07T01:58:28;380.20;;;358.30;;
13345;SDS011;6742;48.036;15.780;2022-12-07T02:00:55;365.77;;;344.87;;
13345;SDS011;6742;48.036;15.780;2022-12-07T02:03:24;337.03;;;319.10;;
13345;SDS011;6742;48.036;15.780;2022-12-07T02:05:56;368.83;;;348.63;;
13345;SDS011;6742;48.036;15.780;2022-12-07T02:08:25;380.87;;;358.17;;
13345;SDS011;6742;48.036;15.780;2022-12-07T02:10:53;381.10;;;359.13;;
13345;SDS011;6742;48.036;15.780;2022-12-07T02:13:21;374.70;;;352.07;;
13345;SDS011;6742;48.036;15.780;2022-12-07T02:18:57;322.17;;;304.63;;
13345;SDS011;6742;48.036;15.780;2022-12-07T02:21:41;317.70;;;300.97;;
13345;SDS011;6742;48.036;15.780;2022-12-07T02:24:24;395.67;;;372.70;;
13345;SDS011;6742;48.036;15.780;2022-12-07T02:27:06;401.80;;;377.40;;
13345;SDS011;6742;48.036;15.780;2022-12-07T02:29:57;359.33;;;338.40;;
13345;SDS011;6742;48.036;15.780;2022-12-07T02:32:28;388.30;;;364.67;;
13345;SDS011;6742;48.036;15.780;2022-12-07T02:35:06;445.33;;;416.57;;
13345;SDS011;6742;48.036;15.780;2022-12-07T02:37:36;436.10;;;408.87;;
13345;SDS011;6742;48.036;15.780;2022-12-07T02:40:08;423.10;;;396.70;;
13345;SDS011;6742;48.036;15.780;2022-12-07T02:42:42;372.00;;;351.07;;
13345;SDS011;6742;48.036;15.780;2022-12-07T02:45:13;358.57;;;339.07;;
13345;SDS011;6742;48.036;15.780;2022-12-07T02:47:44;326.80;;;309.70;;
13345;SDS011;6742;48.036;15.780;2022-12-07T02:50:13;358.33;;;337.77;;
13345;SDS011;6742;48.036;15.780;2022-12-07T02:52:40;415.57;;;390.10;;
13345;SDS011;6742;48.036;15.780;2022-12-07T02:55:07;404.97;;;378.13;;
13345;SDS011;6742;48.036;15.780;2022-12-07T02:57:38;473.43;;;441.00;;
13345;SDS011;6742;48.036;15.780;2022-12-07T03:00:16;446.43;;;417.30;;
13345;SDS011;6742;48.036;15.780;2022-12-07T03:02:50;492.60;;;459.30;;
13345;SDS011;6742;48.036;15.780;2022-12-07T03:08:24;423.17;;;397.23;;
13345;SDS011;6742;48.036;15.780;2022-12-07T03:11:00;494.40;;;460.27;;
13345;SDS011;6742;48.036;15.780;2022-12-07T03:13:31;425.07;;;399.40;;
13345;SDS011;6742;48.036;15.780;2022-12-07T03:16:07;409.80;;;386.03;;
13345;SDS011;6742;48.036;15.780;2022-12-07T03:18:38;392.43;;;369.33;;
13345;SDS011;6742;48.036;15.780;2022-12-07T03:21:10;404.47;;;379.13;;
13345;SDS011;6742;48.036;15.780;2022-12-07T03:23:40;448.67;;;421.23;;
13345;SDS011;6742;48.036;15.780;2022-12-07T03:26:09;459.87;;;429.30;;
13345;SDS011;6742;48.036;15.780;2022-12-07T03:28:39;420.13;;;395.00;;
13345;SDS011;6742;48.036;15.780;2022-12-07T03:31:12;397.80;;;373.77;;
13345;SDS011;6742;48.036;15.780;2022-12-07T03:33:44;386.33;;;363.47;;
13345;SDS011;6742;48.036;15.780;2022-12-07T03:36:19;408.27;;;383.93;;
13345;SDS011;6742;48.036;15.780;2022-12-07T03:38:53;357.93;;;336.53;;
13345;SDS011;6742;48.036;15.780;2022-12-07T03:41:25;431.73;;;403.40;;
13345;SDS011;6742;48.036;15.780;2022-12-07T03:43:55;406.10;;;381.17;;
13345;SDS011;6742;48.036;15.780;2022-12-07T03:46:27;431.17;;;403.00;;
13345;SDS011;6742;48.036;15.780;2022-12-07T03:49:03;421.13;;;395.53;;
13345;SDS011;6742;48.036;15.780;2022-12-07T03:51:36;391.57;;;367.43;;
13345;SDS011;6742;48.036;15.780;2022-12-07T03:54:11;411.07;;;387.03;;
13345;SDS011;6742;48.036;15.780;2022-12-07T03:56:43;362.67;;;340.87;;
13345;SDS011;6742;48.036;15.780;2022-12-07T03:59:12;383.23;;;361.13;;
13345;SDS011;6742;48.036;15.780;2022-12-07T04:01:42;387.43;;;364.70;;
13345;SDS011;6742;48.036;15.780;2022-12-07T04:04:10;377.47;;;355.50;;
13345;SDS011;6742;48.036;15.780;2022-12-07T04:06:37;395.13;;;372.47;;
13345;SDS011;6742;48.036;15.780;2022-12-07T04:09:04;415.93;;;389.93;;
13345;SDS011;6742;48.036;15.780;2022-12-07T04:11:31;473.57;;;443.27;;
13345;SDS011;6742;48.036;15.780;2022-12-07T04:13:57;404.20;;;379.77;;
13345;SDS011;6742;48.036;15.780;2022-12-07T04:16:43;432.67;;;404.80;;
13345;SDS011;6742;48.036;15.780;2022-12-07T04:19:19;470.13;;;439.23;;
13345;SDS011;6742;48.036;15.780;2022-12-07T04:21:48;421.37;;;395.30;;
13345;SDS011;6742;48.036;15.780;2022-12-07T04:24:15;501.10;;;468.47;;
13345;SDS011;6742;48.036;15.780;2022-12-07T04:26:43;462.07;;;433.00;;
13345;SDS011;6742;48.036;15.780;2022-12-07T04:29:11;414.60;;;388.93;;
13345;SDS011;6742;48.036;15.780;2022-12-07T04:31:39;396.57;;;373.10;;
13345;SDS011;6742;48.036;15.780;2022-12-07T04:34:08;385.77;;;363.70;;
13345;SDS011;6742;48.036;15.780;2022-12-07T04:36:35;399.50;;;376.33;;
13345;SDS011;6742;48.036;15.780;2022-12-07T04:39:03;384.97;;;363.73;;
13345;SDS011;6742;48.036;15.780;2022-12-07T04:41:31;361.03;;;339.63;;
13345;SDS011;6742;48.036;15.780;2022-12-07T04:43:59;412.83;;;388.20;;
13345;SDS011;6742;48.036;15.780;2022-12-07T04:46:27;487.33;;;455.13;;
13345;SDS011;6742;48.036;15.780;2022-12-07T04:48:56;430.93;;;404.33;;
13345;SDS011;6742;48.036;15.780;2022-12-07T04:51:25;417.47;;;392.33;;
13345;SDS011;6742;48.036;15.780;2022-12-07T04:53:55;398.90;;;374.73;;
13345;SDS011;6742;48.036;15.780;2022-12-07T04:56:22;397.70;;;373.07;;
13345;SDS011;6742;48.036;15.780;2022-12-07T04:58:51;402.53;;;379.00;;
13345;SDS011;6742;48.036;15.780;2022-12-07T05:01:19;375.03;;;352.90;;
13345;SDS011;6742;48.036;15.780;2022-12-07T05:03:47;419.63;;;394.13;;
13345;SDS011;6742;48.036;15.780;2022-12-07T05:06:14;413.70;;;388.67;;
13345;SDS011;6742;48.036;15.780;2022-12-07T05:08:42;390.60;;;368.50;;
13345;SDS011;6742;48.036;15.780;2022-12-07T05:11:09;335.93;;;315.77;;
13345;SDS011;6742;48.036;15.780;2022-12-07T05:13:58;389.67;;;367.50;;
13345;SDS011;6742;48.036;15.780;2022-12-07T05:16:25;419.20;;;392.67;;
13345;SDS011;6742;48.036;15.780;2022-12-07T05:18:52;485.70;;;453.47;;
13345;SDS011;6742;48.036;15.780;2022-12-07T05:21:18;528.23;;;491.83;;
13345;SDS011;6742;48.036;15.780;2022-12-07T05:23:47;506.07;;;471.83;;
13345;SDS011;6742;48.036;15.780;2022-12-07T05:26:14;508.13;;;474.20;;
13345;SDS011;6742;48.036;15.780;2022-12-07T05:28:41;405.70;;;379.83;;
13345;SDS011;6742;48.036;15.780;2022-12-07T05:31:08;475.87;;;444.63;;
13345;SDS011;6742;48.036;15.780;2022-12-07T05:33:35;503.40;;;468.63;;
13345;SDS011;6742;48.036;15.780;2022-12-07T05:36:02;477.00;;;444.83;;
13345;SDS011;6742;48.036;15.780;2022-12-07T05:38:30;518.57;;;483.17;;
13345;SDS011;6742;48.036;15.780;2022-12-07T05:41:02;542.27;;;503.87;;
13345;SDS011;6742;48.036;15.780;2022-12-07T05:43:31;511.50;;;474.80;;
13345;SDS011;6742;48.036;15.780;2022-12-07T05:45:58;474.93;;;444.77;;
13345;SDS011;6742;48.036;15.780;2022-12-07T05:48:25;479.87;;;447.37;;
13345;SDS011;6742;48.036;15.780;2022-12-07T05:50:52;505.83;;;473.40;;
13345;SDS011;6742;48.036;15.780;2022-12-07T05:53:19;445.90;;;415.57;;
13345;SDS011;6742;48.036;15.780;2022-12-07T05:55:46;482.00;;;451.03;;
13345;SDS011;6742;48.036;15.780;2022-12-07T05:58:14;567.77;;;528.57;;
13345;SDS011;6742;48.036;15.780;2022-12-07T06:00:59;576.50;;;534.60;;
13345;SDS011;6742;48.036;15.780;2022-12-07T06:03:26;452.43;;;424.23;;
13345;SDS011;6742;48.036;15.780;2022-12-07T06:05:53;521.13;;;485.70;;
13345;SDS011;6742;48.036;15.780;2022-12-07T06:08:19;491.33;;;459.10;;
13345;SDS011;6742;48.036;15.780;2022-12-07T06:10:47;519.87;;;485.13;;
13345;SDS011;6742;48.036;15.780;2022-12-07T06:13:37;448.07;;;420.73;;
13345;SDS011;6742;48.036;15.780;2022-12-07T06:16:03;475.50;;;445.20;;
13345;SDS011;6742;48.036;15.780;2022-12-07T06:18:30;430.77;;;403.97;;
13345;SDS011;6742;48.036;15.780;2022-12-07T06:20:57;420.47;;;394.73;;
13345;SDS011;6742;48.036;15.780;2022-12-07T06:23:24;460.80;;;431.07;;
13345;SDS011;6742;48.036;15.780;2022-12-07T06:25:54;410.30;;;384.90;;
13345;SDS011;6742;48.036;15.780;2022-12-07T06:28:20;407.97;;;382.77;;
13345;SDS011;6742;48.036;15.780;2022-12-07T06:30:56;479.00;;;447.57;;
13345;SDS011;6742;48.036;15.780;2022-12-07T06:33:23;433.63;;;406.00;;
13345;SDS011;6742;48.036;15.780;2022-12-07T06:35:53;501.87;;;469.10;;
13345;SDS011;6742;48.036;15.780;2022-12-07T06:38:21;527.27;;;488.63;;
13345;SDS011;6742;48.036;15.780;2022-12-07T06:40:48;502.97;;;468.77;;
13345;SDS011;6742;48.036;15.780;2022-12-07T06:43:15;563.30;;;522.20;;
13345;SDS011;6742;48.036;15.780;2022-12-07T06:45:42;496.97;;;464.47;;
13345;SDS011;6742;48.036;15.780;2022-12-07T06:48:12;382.83;;;364.23;;
13345;SDS011;6742;48.036;15.780;2022-12-07T06:50:39;528.87;;;491.33;;
13345;SDS011;6742;48.036;15.780;2022-12-07T06:53:07;464.67;;;433.90;;
13345;SDS011;6742;48.036;15.780;2022-12-07T06:55:35;375.20;;;356.40;;
13345;SDS011;6742;48.036;15.780;2022-12-07T06:58:02;396.27;;;376.50;;
13345;SDS011;6742;48.036;15.780;2022-12-07T07:00:29;441.30;;;413.57;;
13345;SDS011;6742;48.036;15.780;2022-12-07T07:02:56;456.80;;;427.83;;
13345;SDS011;6742;48.036;15.780;2022-12-07T07:05:24;516.10;;;481.20;;
13345;SDS011;6742;48.036;15.780;2022-12-07T07:07:51;392.83;;;373.13;;
13345;SDS011;6742;48.036;15.780;2022-12-07T07:10:18;452.10;;;423.90;;
13345;SDS011;6742;48.036;15.780;2022-12-07T07:12:45;502.63;;;467.10;;
13345;SDS011;6742;48.036;15.780;2022-12-07T07:15:12;462.10;;;431.97;;
13345;SDS011;6742;48.036;15.780;2022-12-07T07:17:39;431.53;;;404.47;;
13345;SDS011;6742;48.036;15.780;2022-12-07T07:20:06;502.53;;;470.33;;
13345;SDS011;6742;48.036;15.780;2022-12-07T07:22:35;454.63;;;426.50;;
13345;SDS011;6742;48.036;15.780;2022-12-07T07:25:02;454.77;;;426.77;;
13345;SDS011;6742;48.036;15.780;2022-12-07T07:27:31;519.67;;;484.43;;
13345;SDS011;6742;48.036;15.780;2022-12-07T07:29:58;481.07;;;450.17;;
13345;SDS011;6742;48.036;15.780;2022-12-07T07:32:25;484.17;;;452.73;;
13345;SDS011;6742;48.036;15.780;2022-12-07T07:34:53;446.80;;;418.70;;
13345;SDS011;6742;48.036;15.780;2022-12-07T07:37:20;473.90;;;443.03;;
13345;SDS011;6742;48.036;15.780;2022-12-07T07:39:48;451.83;;;423.47;;
13345;SDS011;6742;48.036;15.780;2022-12-07T07:42:15;507.80;;;473.20;;
13345;SDS011;6742;48.036;15.780;2022-12-07T07:44:42;482.53;;;451.23;;
13345;SDS011;6742;48.036;15.780;2022-12-07T07:47:09;538.40;;;500.97;;
13345;SDS011;6742;48.036;15.780;2022-12-07T07:49:36;333.57;;;317.83;;
13345;SDS011;6742;48.036;15.780;2022-12-07T07:52:02;326.77;;;311.60;;
13345;SDS011;6742;48.036;15.780;2022-12-07T07:54:31;417.47;;;392.53;;
13345;SDS011;6742;48.036;15.780;2022-12-07T07:56:59;409.27;;;385.07;;
13345;SDS011;6742;48.036;15.780;2022-12-07T07:59:26;395.07;;;372.10;;
13345;SDS011;6742;48.036;15.780;2022-12-07T08:01:53;436.70;;;409.77;;
13345;SDS011;6742;48.036;15.780;2022-12-07T08:04:20;448.00;;;419.57;;
13345;SDS011;6742;48.036;15.780;2022-12-07T08:06:47;375.33;;;354.30;;
13345;SDS011;6742;48.036;15.780;2022-12-07T08:09:14;382.23;;;360.63;;
13345;SDS011;6742;48.036;15.780;2022-12-07T08:11:40;354.80;;;334.57;;
13345;SDS011;6742;48.036;15.780;2022-12-07T08:14:09;291.70;;;277.13;;
13345;SDS011;6742;48.036;15.780;2022-12-07T08:16:37;305.00;;;288.97;;
13345;SDS011;6742;48.036;15.780;2022-12-07T08:19:04;314.40;;;298.03;;
13345;SDS011;6742;48.036;15.780;2022-12-07T08:21:31;148.23;;;142.07;;
13345;SDS011;6742;48.036;15.780;2022-12-07T08:23:58;312.17;;;295.50;;
13345;SDS011;6742;48.036;15.780;2022-12-07T08:26:25;385.27;;;363.83;;
13345;SDS011;6742;48.036;15.780;2022-12-07T08:28:52;460.77;;;432.87;;
13345;SDS011;6742;48.036;15.780;2022-12-07T08:31:20;359.67;;;340.00;;
13345;SDS011;6742;48.036;15.780;2022-12-07T08:33:47;316.63;;;300.17;;
13345;SDS011;6742;48.036;15.780;2022-12-07T08:36:15;272.00;;;258.40;;
13345;SDS011;6742;48.036;15.780;2022-12-07T08:38:43;295.47;;;280.67;;
13345;SDS011;6742;48.036;15.780;2022-12-07T08:41:10;233.00;;;222.23;;
13345;SDS011;6742;48.036;15.780;2022-12-07T08:43:37;206.73;;;196.90;;
13345;SDS011;6742;48.036;15.780;2022-12-07T08:46:06;213.50;;;203.17;;
13345;SDS011;6742;48.036;15.780;2022-12-07T08:48:38;295.77;;;280.43;;
13345;SDS011;6742;48.036;15.780;2022-12-07T08:51:07;259.53;;;246.30;;
13345;SDS011;6742;48.036;15.780;2022-12-07T08:53:34;328.97;;;311.20;;
13345;SDS011;6742;48.036;15.780;2022-12-07T08:56:03;272.57;;;258.27;;
13345;SDS011;6742;48.036;15.780;2022-12-07T08:58:32;200.67;;;190.93;;
13345;SDS011;6742;48.036;15.780;2022-12-07T09:01:00;242.37;;;230.43;;
13345;SDS011;6742;48.036;15.780;2022-12-07T09:03:27;216.80;;;206.23;;
13345;SDS011;6742;48.036;15.780;2022-12-07T09:05:55;201.00;;;191.00;;
13345;SDS011;6742;48.036;15.780;2022-12-07T09:08:23;254.63;;;241.80;;
13345;SDS011;6742;48.036;15.780;2022-12-07T09:10:54;254.40;;;241.33;;
13345;SDS011;6742;48.036;15.780;2022-12-07T09:13:24;309.13;;;292.07;;
13345;SDS011;6742;48.036;15.780;2022-12-07T09:15:51;231.53;;;219.70;;
13345;SDS011;6742;48.036;15.780;2022-12-07T09:18:18;236.27;;;223.77;;
13345;SDS011;6742;48.036;15.780;2022-12-07T09:20:45;264.77;;;251.03;;
13345;SDS011;6742;48.036;15.780;2022-12-07T09:23:14;216.67;;;206.07;;
13345;SDS011;6742;48.036;15.780;2022-12-07T09:25:41;212.47;;;202.00;;
13345;SDS011;6742;48.036;15.780;2022-12-07T09:28:08;157.20;;;149.80;;
13345;SDS011;6742;48.036;15.780;2022-12-07T09:30:34;173.30;;;164.93;;
13345;SDS011;6742;48.036;15.780;2022-12-07T09:33:01;186.70;;;177.53;;
13345;SDS011;6742;48.036;15.780;2022-12-07T09:35:28;244.47;;;232.10;;
13345;SDS011;6742;48.036;15.780;2022-12-07T09:37:55;220.80;;;209.73;;
13345;SDS011;6742;48.036;15.780;2022-12-07T09:40:24;177.17;;;168.33;;
13345;SDS011;6742;48.036;15.780;2022-12-07T09:42:51;216.67;;;205.63;;
13345;SDS011;6742;48.036;15.780;2022-12-07T09:45:22;248.63;;;235.63;;
13345;SDS011;6742;48.036;15.780;2022-12-07T09:47:52;207.67;;;197.00;;
13345;SDS011;6742;48.036;15.780;2022-12-07T09:50:20;181.37;;;172.37;;
13345;SDS011;6742;48.036;15.780;2022-12-07T09:52:50;245.60;;;232.83;;
13345;SDS011;6742;48.036;15.780;2022-12-07T09:55:19;162.63;;;154.50;;
13345;SDS011;6742;48.036;15.780;2022-12-07T09:57:51;233.63;;;221.13;;
13345;SDS011;6742;48.036;15.780;2022-12-07T10:00:20;284.07;;;268.10;;
13345;SDS011;6742;48.036;15.780;2022-12-07T10:02:51;194.83;;;184.83;;
13345;SDS011;6742;48.036;15.780;2022-12-07T10:05:22;250.20;;;236.80;;
13345;SDS011;6742;48.036;15.780;2022-12-07T10:07:52;175.27;;;166.23;;
13345;SDS011;6742;48.036;15.780;2022-12-07T10:10:20;213.00;;;201.50;;
13345;SDS011;6742;48.036;15.780;2022-12-07T10:12:55;151.10;;;143.67;;
13345;SDS011;6742;48.036;15.780;2022-12-07T10:15:37;191.77;;;182.00;;
13345;SDS011;6742;48.036;15.780;2022-12-07T10:18:17;207.40;;;196.53;;
13345;SDS011;6742;48.036;15.780;2022-12-07T10:20:46;125.37;;;119.17;;
13345;SDS011;6742;48.036;15.780;2022-12-07T10:23:14;108.10;;;102.87;;
13345;SDS011;6742;48.036;15.780;2022-12-07T10:25:42;73.47;;;69.90;;
13345;SDS011;6742;48.036;15.780;2022-12-07T10:28:13;94.97;;;90.40;;
13345;SDS011;6742;48.036;15.780;2022-12-07T10:30:52;82.37;;;78.43;;
13345;SDS011;6742;48.036;15.780;2022-12-07T10:33:28;95.97;;;91.33;;
13345;SDS011;6742;48.036;15.780;2022-12-07T10:35:59;91.30;;;87.00;;
13345;SDS011;6742;48.036;15.780;2022-12-07T10:38:35;86.73;;;82.57;;
13345;SDS011;6742;48.036;15.780;2022-12-07T10:41:12;88.33;;;84.17;;
13345;SDS011;6742;48.036;15.780;2022-12-07T10:43:47;85.27;;;81.23;;
13345;SDS011;6742;48.036;15.780;2022-12-07T10:52:18;90.03;;;85.70;;
13345;SDS011;6742;48.036;15.780;2022-12-07T10:54:57;83.77;;;79.63;;
13345;SDS011;6742;48.036;15.780;2022-12-07T10:57:41;106.27;;;100.97;;
13345;SDS011;6742;48.036;15.780;2022-12-07T11:00:21;135.67;;;128.83;;
13345;SDS011;6742;48.036;15.780;2022-12-07T11:02:58;131.13;;;124.63;;
13345;SDS011;6742;48.036;15.780;2022-12-07T11:05:45;109.63;;;104.13;;
13345;SDS011;6742;48.036;15.780;2022-12-07T11:08:22;115.20;;;109.37;;
13345;SDS011;6742;48.036;15.780;2022-12-07T11:11:02;144.23;;;137.00;;
13345;SDS011;6742;48.036;15.780;2022-12-07T11:13:37;137.87;;;130.97;;
13345;SDS011;6742;48.036;15.780;2022-12-07T11:16:25;137.80;;;130.67;;
13345;SDS011;6742;48.036;15.780;2022-12-07T11:22:00;183.23;;;173.57;;
13345;SDS011;6742;48.036;15.780;2022-12-07T11:24:37;149.70;;;142.00;;
13345;SDS011;6742;48.036;15.780;2022-12-07T11:27:13;164.60;;;156.03;;
13345;SDS011;6742;48.036;15.780;2022-12-07T11:29:59;167.17;;;158.40;;
13345;SDS011;6742;48.036;15.780;2022-12-07T11:32:44;134.63;;;127.73;;
13345;SDS011;6742;48.036;15.780;2022-12-07T11:35:20;134.90;;;127.90;;
13345;SDS011;6742;48.036;15.780;2022-12-07T11:37:55;146.67;;;139.07;;
13345;SDS011;6742;48.036;15.780;2022-12-07T11:40:26;144.20;;;136.70;;
13345;SDS011;6742;48.036;15.780;2022-12-07T11:43:00;146.03;;;138.40;;
13345;SDS011;6742;48.036;15.780;2022-12-07T11:45:31;106.73;;;101.40;;
13345;SDS011;6742;48.036;15.780;2022-12-07T11:48:02;138.33;;;131.40;;
13345;SDS011;6742;48.036;15.780;2022-12-07T11:50:33;156.93;;;148.83;;
13345;SDS011;6742;48.036;15.780;2022-12-07T11:53:03;158.20;;;149.83;;
13345;SDS011;6742;48.036;15.780;2022-12-07T11:55:40;158.23;;;150.07;;
13345;SDS011;6742;48.036;15.780;2022-12-07T11:58:14;192.53;;;182.30;;
13345;SDS011;6742;48.036;15.780;2022-12-07T12:00:51;223.57;;;211.40;;
13345;SDS011;6742;48.036;15.780;2022-12-07T12:03:33;240.83;;;227.60;;
13345;SDS011;6742;48.036;15.780;2022-12-07T12:06:04;202.13;;;191.30;;
13345;SDS011;6742;48.036;15.780;2022-12-07T12:08:32;173.23;;;164.33;;
13345;SDS011;6742;48.036;15.780;2022-12-07T12:11:08;190.87;;;180.80;;
13345;SDS011;6742;48.036;15.780;2022-12-07T12:13:54;151.23;;;143.57;;
13345;SDS011;6742;48.036;15.780;2022-12-07T12:16:52;157.70;;;149.73;;
13345;SDS011;6742;48.036;15.780;2022-12-07T12:19:45;103.23;;;98.07;;
13345;SDS011;6742;48.036;15.780;2022-12-07T12:22:32;111.60;;;105.90;;
13345;SDS011;6742;48.036;15.780;2022-12-07T12:25:03;135.33;;;128.50;;
13345;SDS011;6742;48.036;15.780;2022-12-07T12:27:32;123.20;;;117.10;;
13345;SDS011;6742;48.036;15.780;2022-12-07T12:30:01;124.07;;;117.77;;
13345;SDS011;6742;48.036;15.780;2022-12-07T12:32:32;103.50;;;98.40;;
13345;SDS011;6742;48.036;15.780;2022-12-07T12:35:29;103.10;;;98.03;;
13345;SDS011;6742;48.036;15.780;2022-12-07T12:40:53;130.47;;;123.93;;
13345;SDS011;6742;48.036;15.780;2022-12-07T12:58:48;123.53;;;116.77;;
13345;SDS011;6742;48.036;15.780;2022-12-07T13:04:27;135.00;;;128.03;;
13345;SDS011;6742;48.036;15.780;2022-12-07T13:07:03;126.05;;;119.95;;
13345;SDS011;6742;48.036;15.780;2022-12-07T13:09:35;114.72;;;109.18;;
13345;SDS011;6742;48.036;15.780;2022-12-07T13:12:03;123.28;;;117.57;;
13345;SDS011;6742;48.036;15.780;2022-12-07T13:14:40;97.53;;;92.90;;
13345;SDS011;6742;48.036;15.780;2022-12-07T13:17:09;115.60;;;110.10;;
13345;SDS011;6742;48.036;15.780;2022-12-07T13:22:39;119.17;;;113.23;;
13345;SDS011;6742;48.036;15.780;2022-12-07T13:25:10;150.20;;;142.40;;
13345;SDS011;6742;48.036;15.780;2022-12-07T13:27:39;168.63;;;159.80;;
13345;SDS011;6742;48.036;15.780;2022-12-07T13:30:12;203.87;;;192.90;;
13345;SDS011;6742;48.036;15.780;2022-12-07T13:32:41;193.47;;;183.30;;
13345;SDS011;6742;48.036;15.780;2022-12-07T13:35:31;201.47;;;190.83;;
13345;SDS011;6742;48.036;15.780;2022-12-07T13:38:01;184.23;;;174.57;;
13345;SDS011;6742;48.036;15.780;2022-12-07T13:40:30;161.40;;;153.13;;
13345;SDS011;6742;48.036;15.780;2022-12-07T13:42:58;166.27;;;157.93;;
13345;SDS011;6742;48.036;15.780;2022-12-07T13:45:28;148.57;;;140.83;;
13345;SDS011;6742;48.036;15.780;2022-12-07T13:48:15;162.77;;;154.17;;
13345;SDS011;6742;48.036;15.780;2022-12-07T13:50:57;223.87;;;211.70;;
13345;SDS011;6742;48.036;15.780;2022-12-07T13:53:26;184.50;;;174.83;;
13345;SDS011;6742;48.036;15.780;2022-12-07T13:55:55;163.37;;;154.63;;
13345;SDS011;6742;48.036;15.780;2022-12-07T13:58:23;162.53;;;153.73;;
13345;SDS011;6742;48.036;15.780;2022-12-07T14:00:51;196.60;;;185.97;;
13345;SDS011;6742;48.036;15.780;2022-12-07T14:03:25;189.00;;;178.77;;
13345;SDS011;6742;48.036;15.780;2022-12-07T14:06:04;187.23;;;177.13;;
13345;SDS011;6742;48.036;15.780;2022-12-07T14:08:33;192.20;;;181.77;;
13345;SDS011;6742;48.036;15.780;2022-12-07T14:11:00;220.17;;;207.83;;
13345;SDS011;6742;48.036;15.780;2022-12-07T14:13:29;232.77;;;220.00;;
13345;SDS011;6742;48.036;15.780;2022-12-07T14:16:00;226.17;;;213.60;;
13345;SDS011;6742;48.036;15.780;2022-12-07T14:18:29;176.37;;;167.07;;
13345;SDS011;6742;48.036;15.780;2022-12-07T14:21:03;172.30;;;163.53;;
13345;SDS011;6742;48.036;15.780;2022-12-07T14:23:30;196.60;;;186.67;;
13345;SDS011;6742;48.036;15.780;2022-12-07T14:26:04;229.37;;;217.27;;
13345;SDS011;6742;48.036;15.780;2022-12-07T14:28:34;236.87;;;224.23;;
13345;SDS011;6742;48.036;15.780;2022-12-07T14:31:07;257.50;;;243.70;;
13345;SDS011;6742;48.036;15.780;2022-12-07T14:33:37;194.17;;;184.67;;
13345;SDS011;6742;48.036;15.780;2022-12-07T14:36:05;173.83;;;165.40;;
13345;SDS011;6742;48.036;15.780;2022-12-07T14:38:33;190.17;;;180.87;;
13345;SDS011;6742;48.036;15.780;2022-12-07T14:41:00;215.00;;;204.43;;
13345;SDS011;6742;48.036;15.780;2022-12-07T14:43:41;177.27;;;168.27;;
13345;SDS011;6742;48.036;15.780;2022-12-07T14:46:10;203.63;;;192.73;;
13345;SDS011;6742;48.036;15.780;2022-12-07T14:48:37;189.47;;;179.47;;
13345;SDS011;6742;48.036;15.780;2022-12-07T14:51:04;186.87;;;177.67;;
13345;SDS011;6742;48.036;15.780;2022-12-07T14:53:31;192.67;;;183.43;;
13345;SDS011;6742;48.036;15.780;2022-12-07T14:56:01;163.43;;;155.53;;
13345;SDS011;6742;48.036;15.780;2022-12-07T14:58:30;213.93;;;203.40;;